Data for 09/13/2007

Time Sea-Level Adjusted Pressure Absolute Pressure Temperature Relative Humidity Dew Point   
(mb) (inHg) (mb) (inHg) (C) (F) (%) (C) (F)
00:05 1023 30.21 852 25.16 7.1 44.8 73 2.5 36.6
00:10 1023 30.21 852 25.16 7 44.6 73 2.5 36.5
00:15 1023 30.21 852 25.16 7.1 44.8 72 2.4 36.4
00:20 1023 30.21 852 25.16 6.9 44.4 73 2.3 36.2
00:25 1023 30.21 852 25.16 6.7 44 73 2.2 36
00:30 1023 30.21 852 25.16 6.6 43.9 73 2.2 35.9
00:35 1023 30.21 852 25.16 6.5 43.8 74 2.2 36
00:40 1023 30.21 852 25.16 6.4 43.6 74 2.2 35.9
00:45 1023 30.21 852 25.16 6.4 43.5 74 2.1 35.7
00:50 1023 30.21 852 25.16 6.2 43.2 75 2.2 35.9
00:55 1023 30.21 852 25.16 6.1 42.9 76 2.1 35.9
01:00 1023 30.21 852 25.16 6.1 43 76 2.2 35.9
01:05 1023 30.21 852 25.16 6.1 43 76 2.2 36
01:10 1023 30.21 852 25.16 6.2 43.2 75 2.2 36
01:15 1023 30.21 852 25.16 6.3 43.4 76 2.4 36.3
01:20 1023 30.21 852 25.16 6.3 43.3 75 2.3 36.1
01:25 1023 30.21 852 25.16 6.3 43.3 76 2.3 36.2
01:30 1023 30.21 852 25.16 6.4 43.6 75 2.4 36.3
01:35 1023 30.21 852 25.16 6.2 43.1 76 2.3 36.2
01:40 1023 30.21 853 25.19 6.2 43.2 75 2.2 35.9
01:45 1023 30.21 853 25.19 6.3 43.3 75 2.2 36
01:50 1023 30.21 853 25.19 6.5 43.7 74 2.3 36.1
01:55 1023 30.21 853 25.19 6.5 43.6 75 2.3 36.2
02:00 1023 30.21 853 25.19 6.2 43.2 74 2 35.7
02:05 1023 30.21 853 25.19 6 42.9 76 2 35.7
02:10 1023 30.21 853 25.19 5.9 42.7 76 2.1 35.8
02:15 1023 30.21 853 25.19 6.1 42.9 75 2 35.6
02:20 1023 30.21 853 25.19 6.2 43.1 75 2.1 35.7
02:25 1023 30.21 853 25.19 6.2 43.1 75 2.1 35.8
02:30 1023 30.21 853 25.19 6.2 43.1 74 2 35.5
02:35 1023 30.21 853 25.19 6.1 43 76 2.1 35.8
02:40 1024 30.24 853 25.19 6.3 43.3 73 1.9 35.4
02:45 1023 30.21 853 25.19 6.4 43.5 73 2 35.6
02:50 1024 30.24 853 25.19 6.4 43.6 74 2.1 35.7
02:55 1024 30.24 853 25.19 6.2 43.2 73 1.8 35.2
03:00 1024 30.24 853 25.19 6 42.8 74 1.8 35.2
03:05 1024 30.24 853 25.19 6 42.8 74 1.8 35.3
03:10 1024 30.24 853 25.19 6 42.8 74 1.8 35.3
03:15 1024 30.24 853 25.19 6.1 42.9 73 1.6 35
03:20 1024 30.24 853 25.19 6.1 42.9 74 1.7 35.1
03:25 1024 30.24 853 25.19 6.1 42.9 74 1.8 35.2
03:30 1024 30.24 853 25.19 6.1 43 73 1.6 34.9
03:35 1024 30.24 853 25.19 6.1 42.9 74 1.7 35.1
03:40 1024 30.24 853 25.19 6 42.9 73 1.7 35
03:45 1024 30.24 853 25.19 5.9 42.6 74 1.6 34.9
03:50 1024 30.24 853 25.19 6 42.7 73 1.6 34.9
03:55 1024 30.24 853 25.19 5.9 42.6 74 1.6 34.8
04:00 1023 30.21 853 25.19 5.9 42.6 74 1.6 34.8
04:05 1023 30.21 853 25.19 5.9 42.7 73 1.5 34.6
04:10 1024 30.24 853 25.19 5.9 42.7 72 1.3 34.4
04:15 1024 30.24 853 25.19 5.9 42.6 73 1.4 34.5
04:20 1024 30.24 853 25.19 5.7 42.3 73 1.3 34.4
04:25 1024 30.24 853 25.19 5.9 42.6 72 1.3 34.4
04:30 1024 30.24 853 25.19 6 42.8 73 1.6 34.9
04:35 1024 30.24 853 25.19 6 42.8 72 1.3 34.4
04:40 1024 30.24 853 25.19 6 42.7 73 1.5 34.8
04:45 1024 30.24 853 25.19 5.9 42.6 73 1.5 34.6
04:50 1023 30.21 853 25.19 6.1 43 72 1.5 34.7
04:55 1023 30.21 853 25.19 6.3 43.4 71 1.5 34.6
05:00 1023 30.21 853 25.19 6.1 43 72 1.5 34.7
05:05 1023 30.21 853 25.19 6.1 42.9 73 1.6 34.9
05:10 1023 30.21 853 25.19 6.1 42.9 73 1.6 34.8
05:15 1023 30.21 853 25.19 6.1 43 72 1.5 34.7
05:20 1023 30.21 853 25.19 6.1 43.1 72 1.5 34.8
05:25 1023 30.21 853 25.19 6.2 43.1 72 1.6 34.8
05:30 1023 30.21 853 25.19 6.2 43.2 72 1.6 34.9
05:35 1023 30.21 853 25.19 6 42.9 73 1.6 34.9
05:40 1023 30.21 853 25.19 6.1 43 72 1.4 34.6
05:45 1023 30.21 853 25.19 6.3 43.4 71 1.4 34.6
05:50 1023 30.21 853 25.19 6.3 43.3 72 1.7 35
05:55 1023 30.21 853 25.19 6.2 43.2 71 1.4 34.5
06:00 1024 30.24 853 25.19 6.3 43.4 71 1.4 34.5
06:05 1024 30.24 853 25.19 6.5 43.6 70 1.5 34.6
06:10 1024 30.24 853 25.19 6.2 43.1 72 1.5 34.7
06:15 1024 30.24 853 25.19 6 42.9 72 1.3 34.3
06:20 1024 30.24 853 25.19 6 42.8 72 1.4 34.5
06:25 1024 30.24 853 25.19 5.8 42.5 72 1.2 34.2
06:30 1024 30.24 853 25.19 5.8 42.4 72 1.1 34.1
06:35 1024 30.24 853 25.19 5.9 42.7 72 1.3 34.3
06:40 1024 30.24 853 25.19 6.1 43.1 71 1.3 34.3
06:45 1024 30.24 853 25.19 6.2 43.1 71 1.4 34.4
06:50 1024 30.24 853 25.19 6.2 43.2 71 1.4 34.5
06:55 1024 30.24 853 25.19 6.1 42.9 72 1.3 34.4
07:00 1024 30.24 853 25.19 5.9 42.6 73 1.3 34.4
07:05 1024 30.24 853 25.19 5.8 42.5 73 1.4 34.5
07:10 1024 30.24 853 25.19 5.8 42.4 73 1.3 34.4
07:15 1024 30.24 853 25.19 6 42.8 73 1.4 34.6
07:20 1024 30.24 853 25.19 6.1 43.1 73 1.6 34.9
07:25 1024 30.24 853 25.19 5.9 42.6 73 1.4 34.5
07:30 1024 30.24 853 25.19 5.8 42.5 73 1.3 34.4
07:35 1024 30.24 853 25.19 6.2 43.1 71 1.4 34.5
07:40 1024 30.24 853 25.19 6 42.8 72 1.4 34.4
07:45 1024 30.24 853 25.19 6 42.9 71 1.2 34.1
07:50 1024 30.24 853 25.19 6 42.8 72 1.3 34.3
07:55 1024 30.24 853 25.19 5.8 42.4 71 0.9 33.6
08:00 1024 30.24 853 25.19 5.8 42.4 72 1.1 33.9
08:05 1024 30.24 853 25.19 5.8 42.5 71 0.9 33.7
08:10 1024 30.24 853 25.19 6.2 43.1 69 1 33.9
08:15 1024 30.24 853 25.19 6.2 43.2 70 1.1 33.9
08:20 1024 30.24 853 25.19 6.1 42.9 70 1 33.9
08:25 1024 30.24 853 25.19 6.2 43.2 69 0.9 33.6
08:30 1024 30.24 853 25.19 6.5 43.6 68 1 33.8
08:35 1024 30.24 854 25.22 6.4 43.5 69 1.1 33.9
08:40 1024 30.24 853 25.19 6.2 43.1 69 0.9 33.6
08:45 1024 30.24 854 25.22 6.3 43.3 68 0.9 33.6
08:50 1024 30.24 854 25.22 6.2 43.1 69 1 33.8
08:55 1024 30.24 853 25.19 6.2 43.2 68 0.7 33.3
09:00 1024 30.24 853 25.19 6.3 43.3 68 0.8 33.5
09:05 1024 30.24 853 25.19 6.4 43.6 69 1.1 34
09:10 1024 30.24 853 25.19 6.8 44.2 67 1.1 34
09:15 1024 30.24 853 25.19 6.9 44.4 66 1 33.8
09:20 1024 30.24 853 25.19 7 44.7 66 1.2 34.1
09:25 1024 30.24 853 25.19 7 44.6 67 1.3 34.4
09:30 1024 30.24 853 25.19 6.9 44.5 66 1.1 34
09:35 1024 30.24 853 25.19 7.2 44.9 67 1.4 34.6
09:40 1024 30.24 853 25.19 7 44.6 66 1.1 33.9
09:45 1024 30.24 853 25.19 7.2 45 66 1.3 34.4
09:50 1024 30.24 853 25.19 7.4 45.4 66 1.4 34.6
09:55 1024 30.24 853 25.19 7.4 45.4 65 1.2 34.2
10:00 1024 30.24 853 25.19 7.8 46.1 63 1.2 34.1
10:05 1024 30.24 853 25.19 8.4 47.1 62 1.6 34.9
10:10 1024 30.24 853 25.19 8.3 46.9 63 1.6 35
10:15 1024 30.24 853 25.19 7.8 46 65 1.6 34.9
10:20 1024 30.24 853 25.19 7.9 46.2 64 1.5 34.7
10:25 1024 30.24 853 25.19 8 46.4 63 1.5 34.7
10:30 1024 30.24 853 25.19 8.5 47.3 61 1.4 34.6
10:35 1024 30.24 853 25.19 8.3 47 64 1.9 35.4
10:40 1024 30.24 853 25.19 8.2 46.7 62 1.4 34.5
10:45 1024 30.24 853 25.19 8.6 47.5 61 1.5 34.7
10:50 1024 30.24 853 25.19 9 48.2 61 2 35.6
10:55 1024 30.24 853 25.19 9.4 49 57 1.3 34.3
11:00 1024 30.24 853 25.19 10.1 50.2 56 1.7 35.1
11:05 1024 30.24 853 25.19 10.4 50.8 54 1.7 35
11:10 1024 30.24 853 25.19 10.4 50.8 57 2.3 36.2
11:15 1024 30.24 853 25.19 10.4 50.7 56 2.1 35.7
11:20 1024 30.24 853 25.19 10.2 50.3 57 2 35.6
11:25 1024 30.24 853 25.19 10.3 50.6 56 1.9 35.4
11:30 1024 30.24 853 25.19 10.4 50.6 56 1.9 35.5
11:35 1024 30.24 853 25.19 10.6 51.1 54 1.8 35.2
11:40 1024 30.24 853 25.19 11.2 52.2 52 1.8 35.3
11:45 1023 30.21 853 25.19 11.6 52.9 53 2.4 36.3
11:50 1023 30.21 853 25.19 11.8 53.2 51 2.1 35.8
11:55 1023 30.21 853 25.19 11.7 53.1 53 2.5 36.5
12:00 1023 30.21 852 25.16 12.2 53.9 51 2.4 36.2
12:05 1023 30.21 852 25.16 12.2 53.9 50 2 35.5
12:10 1023 30.21 852 25.16 12.5 54.4 49 2.1 35.7
12:15 1023 30.21 852 25.16 12.9 55.3 48 2.2 36
12:20 1023 30.21 852 25.16 13.4 56.2 46 2.2 36
12:25 1023 30.21 852 25.16 13.2 55.8 49 2.8 37.1
12:30 1023 30.21 852 25.16 13.4 56 46 2 35.6
12:35 1023 30.21 852 25.16 12.9 55.2 47 2.1 35.7
12:40 1023 30.21 852 25.16 13.6 56.4 45 1.9 35.4
12:45 1023 30.21 852 25.16 13.9 57 45 2.3 36.2
12:50 1023 30.21 852 25.16 13.3 55.9 47 2.3 36.1
12:55 1023 30.21 852 25.16 13.7 56.7 45 2 35.6
13:00 1023 30.21 852 25.16 14.1 57.3 44 1.9 35.5
13:05 1023 30.21 852 25.16 14 57.3 45 2.3 36.1
13:10 1023 30.21 852 25.16 14 57.2 45 2.3 36.1
13:15 1023 30.21 852 25.16 14.3 57.7 46 2.9 37.2
13:20 1022 30.18 852 25.16 13.5 56.3 46 2.3 36.1
13:25 1022 30.18 852 25.16 13.8 56.9 45 2.2 35.9
13:30 1022 30.18 852 25.16 14.9 58.8 41 1.9 35.4
13:35 1022 30.18 852 25.16 15.3 59.6 41 2.3 36.2
13:40 1022 30.18 852 25.16 15 59.1 43 2.8 37
13:45 1022 30.18 852 25.16 13.6 56.4 46 2.3 36.2
13:50 1022 30.18 852 25.16 13.9 57 43 1.6 34.9
13:55 1022 30.18 852 25.16 14 57.1 47 2.9 37.3
14:00 1022 30.18 852 25.16 13.7 56.7 46 2.5 36.5
14:05 1022 30.18 851 25.13 14.1 57.3 44 2.1 35.9
14:10 1022 30.18 851 25.13 14.5 58 44 2.4 36.3
14:15 1022 30.18 851 25.13 14.6 58.3 44 2.5 36.5
14:20 1022 30.18 851 25.13 14.7 58.5 42 2 35.7
14:25 1022 30.18 851 25.13 15.4 59.8 41 2.3 36.1
14:30 1022 30.18 851 25.13 15.4 59.8 43 2.9 37.3
14:35 1022 30.18 851 25.13 14.5 58.1 45 2.9 37.2
14:40 1022 30.18 851 25.13 14.9 58.7 42 2.1 35.8
14:45 1022 30.18 851 25.13 16 60.8 40 2.4 36.3
14:50 1022 30.18 851 25.13 16.7 62 39 2.6 36.8
14:55 1022 30.18 851 25.13 16.6 61.9 39 2.8 37
15:00 1022 30.18 851 25.13 16.4 61.5 37 2 35.5
15:05 1022 30.18 851 25.13 17.1 62.7 40 3.6 38.5
15:10 1022 30.18 851 25.13 16.6 61.9 37 2.1 35.7
15:15 1022 30.18 851 25.13 17.3 63.1 37 2.6 36.7
15:20 1022 30.18 851 25.13 16.8 62.2 38 2.5 36.5
15:25 1022 30.18 851 25.13 16.7 62 37 2.1 35.7
15:30 1022 30.18 851 25.13 16.8 62.2 36 1.8 35.3
15:35 1021 30.15 851 25.13 17.3 63.1 36 2.1 35.8
15:40 1021 30.15 851 25.13 17.5 63.5 35 2.1 35.8
15:45 1021 30.15 851 25.13 18.5 65.3 34 2.6 36.8
15:50 1021 30.15 851 25.13 18 64.4 35 2.4 36.2
15:55 1021 30.15 851 25.13 18.1 64.5 34 2 35.6
16:00 1021 30.15 850 25.1 18.4 65.1 34 2.3 36.1
16:05 1021 30.15 850 25.1 17.6 63.6 35 2.1 35.7
16:10 1021 30.15 850 25.1 17.5 63.5 35 2.1 35.8
16:15 1021 30.15 850 25.1 18 64.5 34 2.1 35.8
16:20 1021 30.15 850 25.1 18.3 64.9 35 2.5 36.6
16:25 1021 30.15 850 25.1 18 64.4 35 2.5 36.4
16:30 1021 30.15 850 25.1 18.1 64.6 34 2.3 36.1
16:35 1021 30.15 850 25.1 18.1 64.6 34 2.3 36.1
16:40 1021 30.15 850 25.1 17.8 64 36 2.6 36.7
16:45 1021 30.15 850 25.1 17.7 63.8 37 2.8 37.1
16:50 1021 30.15 850 25.1 17.8 64.1 36 2.5 36.5
16:55 1021 30.15 850 25.1 18.3 64.9 36 3 37.4
17:00 1021 30.15 850 25.1 18.2 64.7 35 2.7 36.9
17:05 1021 30.15 850 25.1 18.4 65 34 2.5 36.6
17:10 1021 30.15 850 25.1 18.4 65.1 34 2.4 36.4
17:15 1021 30.15 850 25.1 18.3 65 34 2.5 36.5
17:20 1021 30.15 850 25.1 18.2 64.7 35 2.6 36.8
17:25 1021 30.15 850 25.1 18.6 65.5 34 2.5 36.4
17:30 1021 30.15 850 25.1 18.7 65.7 35 3 37.3
17:35 1021 30.15 850 25.1 18.5 65.3 35 2.9 37.2
17:40 1021 30.15 850 25.1 18.7 65.7 34 2.9 37.2
17:45 1021 30.15 850 25.1 18.9 66 35 3.1 37.6
17:50 1021 30.15 850 25.1 18.5 65.3 36 3.3 37.9
17:55 1021 30.15 850 25.1 18.3 64.9 37 3.3 37.9
18:00 1021 30.15 850 25.1 18.1 64.6 38 3.8 38.8
18:05 1021 30.15 850 25.1 18 64.4 37 3.3 37.9
18:10 1021 30.15 850 25.1 18.3 65 36 3 37.4
18:15 1021 30.15 850 25.1 18.5 65.2 35 3 37.3
18:20 1021 30.15 850 25.1 18 64.5 37 3.3 37.9
18:25 1021 30.15 850 25.1 16.9 62.5 40 3.5 38.3
18:30 1021 30.15 850 25.1 16.4 61.5 42 3.5 38.2
18:35 1021 30.15 850 25.1 16.3 61.4 42 3.5 38.4
18:40 1021 30.15 850 25.1 16.6 61.8 42 3.6 38.6
18:45 1021 30.15 850 25.1 16.7 62 42 3.9 39.1
18:50 1021 30.15 850 25.1 16.5 61.8 42 3.5 38.4
18:55 1021 30.15 850 25.1 16.6 61.8 41 3.5 38.4
19:00 1021 30.15 850 25.1 16.5 61.7 43 4 39.2
19:05 1021 30.15 850 25.1 16.4 61.6 43 3.8 38.9
19:10 1021 30.15 850 25.1 16.3 61.3 44 4.1 39.5
19:15 1021 30.15 850 25.1 16 60.9 44 3.8 38.9
19:20 1021 30.15 850 25.1 15.9 60.6 45 4.2 39.6
19:25 1021 30.15 850 25.1 15.6 60 47 4.2 39.6
19:30 1021 30.15 850 25.1 15.1 59.2 47 4.1 39.4
19:35 1021 30.15 850 25.1 14.8 58.7 48 3.9 39.1
19:40 1021 30.15 850 25.1 14.5 58.2 48 3.8 38.8
19:45 1021 30.15 850 25.1 14.2 57.6 45 2.7 36.8
19:50 1021 30.15 850 25.1 14.1 57.3 47 2.9 37.2
19:55 1021 30.15 850 25.1 13.9 56.9 45 2.2 35.9
20:00 1021 30.15 850 25.1 13.6 56.5 44 1.8 35.2
20:05 1021 30.15 851 25.13 13.5 56.3 44 1.7 35
20:10 1021 30.15 851 25.13 13.4 56.1 45 1.7 35
20:15 1021 30.15 851 25.13 13.2 55.8 45 1.5 34.7
20:20 1021 30.15 851 25.13 13.2 55.7 45 1.5 34.7
20:25 1022 30.18 851 25.13 13 55.4 45 1.4 34.5
20:30 1022 30.18 851 25.13 12.9 55.1 45 1.3 34.3
20:35 1022 30.18 851 25.13 12.7 54.9 45 1.1 34
20:40 1022 30.18 851 25.13 12.6 54.8 44 0.9 33.6
20:45 1022 30.18 851 25.13 12.6 54.7 44 0.9 33.6
20:50 1022 30.18 851 25.13 12.6 54.6 44 0.8 33.5
20:55 1022 30.18 851 25.13 12.5 54.6 44 0.8 33.5
21:00 1022 30.18 851 25.13 12.5 54.4 44 0.6 33
21:05 1022 30.18 851 25.13 12.5 54.4 44 0.5 32.9
21:10 1022 30.18 851 25.13 12.4 54.2 44 0.5 32.8
21:15 1022 30.18 851 25.13 12.3 54.1 44 0.4 32.8
21:20 1022 30.18 851 25.13 12.1 53.8 44 0.3 32.5
21:25 1022 30.18 851 25.13 12 53.6 44 0.2 32.4
21:30 1022 30.18 851 25.13 11.9 53.4 45 0.3 32.6
21:35 1022 30.18 851 25.13 11.7 53.1 45 0.2 32.4
21:40 1022 30.18 851 25.13 11.7 53 44 -0 32
21:45 1022 30.18 851 25.13 11.7 53 44 0 32.1
21:50 1022 30.18 851 25.13 11.7 53 45 0.1 32.2
21:55 1022 30.18 851 25.13 11.6 52.8 45 0 32.1
22:00 1022 30.18 851 25.13 11.5 52.8 45 0 32
22:05 1022 30.18 851 25.13 11.5 52.7 45 -0 31.9
22:10 1022 30.18 851 25.13 11.5 52.7 45 -0 31.9
22:15 1022 30.18 851 25.13 11.5 52.6 45 -0.1 31.8
22:20 1022 30.18 851 25.13 11.4 52.5 45 -0.1 31.8
22:25 1022 30.18 851 25.13 11.3 52.4 44 -0.4 31.4
22:30 1022 30.18 851 25.13 11.3 52.4 44 -0.4 31.3
22:35 1022 30.18 851 25.13 11.3 52.3 44 -0.6 30.9
22:40 1022 30.18 851 25.13 11.3 52.3 44 -0.6 30.9
22:45 1022 30.18 851 25.13 11.2 52.2 43 -0.7 30.7
22:50 1022 30.18 851 25.13 11.1 52.1 43 -0.8 30.6
22:55 1022 30.18 851 25.13 11 51.8 44 -0.9 30.4
23:00 1022 30.18 851 25.13 10.9 51.5 43 -1.1 30
23:05 1022 30.18 851 25.13 10.8 51.5 42 -1.5 29.2
23:10 1022 30.18 851 25.13 10.7 51.3 41 -1.8 28.7
23:15 1022 30.18 851 25.13 10.7 51.2 41 -1.8 28.7
23:20 1022 30.18 852 25.16 10.5 50.8 42 -1.9 28.7
23:25 1022 30.18 851 25.13 10.3 50.5 42 -2 28.4
23:30 1022 30.18 852 25.16 10.2 50.3 43 -2 28.4
23:35 1022 30.18 852 25.16 10.1 50.1 42 -2.2 28.1
23:40 1022 30.18 852 25.16 10.1 50.1 42 -2.2 28
23:45 1022 30.18 852 25.16 10 49.9 41 -2.5 27.5
23:50 1022 30.18 852 25.16 9.9 49.9 41 -2.5 27.4
23:55 1022 30.18 852 25.16 9.9 49.8 41 -2.6 27.4
24:00 1022 30.18 852 25.16 9.8 49.6 41 -2.7 27.2